Time;durP1;ratioP1;P1;durP2;ratioP2;P2;SDS_P1;SDS_P2;PMS_P1;PMS_P2;Temp;Humidity;BMP_temperature;BMP_pressure;BME280_temperature;BME280_humidity;BME280_pressure;Samples;Min_cycle;Max_cycle;Signal;HPM_P1;HPM_P2
2023/08/16 00:01:06;;;;;;;11.10;10.13;;;;;;;24.45;75.07;94964.41;5072965;28;20444;-76
2023/08/16 00:03:32;;;;;;;13.80;10.70;;;;;;;24.51;74.05;94964.38;5072628;28;20440;-76
2023/08/16 00:06:08;;;;;;;12.23;11.00;;;;;;;24.57;75.31;94963.50;5072617;28;20440;-76
2023/08/16 00:08:37;;;;;;;13.13;10.73;;;;;;;24.59;75.47;94961.47;5072908;28;20454;-76
2023/08/16 00:11:04;;;;;;;11.90;10.70;;;;;;;24.62;75.13;94962.91;5073186;28;20828;-77
2023/08/16 00:13:31;;;;;;;13.83;10.57;;;;;;;24.54;75.25;94969.31;5072486;28;20491;-77
2023/08/16 00:15:58;;;;;;;11.87;10.80;;;;;;;24.39;75.83;94966.09;5073092;28;20445;-76
2023/08/16 00:18:24;;;;;;;11.57;10.50;;;;;;;24.19;76.44;94965.31;5072828;28;20446;-77
2023/08/16 00:20:51;;;;;;;13.50;11.70;;;;;;;24.02;77.30;94963.13;5072847;28;20548;-76
2023/08/16 00:23:18;;;;;;;13.40;12.10;;;;;;;23.84;78.23;94954.91;5073073;28;20440;-76
2023/08/16 00:25:46;;;;;;;13.20;11.77;;;;;;;23.78;78.21;94964.63;5072344;28;20443;-76
2023/08/16 00:28:13;;;;;;;12.80;11.50;;;;;;;23.67;78.59;94961.75;5072790;28;20854;-75
2023/08/16 00:30:42;;;;;;;13.77;12.27;;;;;;;23.52;79.77;94953.91;5072216;28;20463;-75
2023/08/16 00:33:09;;;;;;;13.17;10.90;;;;;;;23.28;81.40;94958.06;5072401;28;20578;-76
2023/08/16 00:35:36;;;;;;;12.00;10.90;;;;;;;23.11;82.61;94956.81;5073302;28;20443;-77
2023/08/16 00:38:03;;;;;;;13.30;12.00;;;;;;;23.03;83.25;94962.38;5037631;28;20447;-77
2023/08/16 00:40:29;;;;;;;13.53;12.30;;;;;;;22.99;83.82;94966.50;5072608;28;20473;-76
2023/08/16 00:42:57;;;;;;;16.50;13.17;;;;;;;22.97;84.59;94972.03;5072643;28;20442;-75
2023/08/16 00:45:24;;;;;;;12.43;11.03;;;;;;;22.97;85.36;94965.88;5072039;28;20436;-76
2023/08/16 00:47:51;;;;;;;14.07;12.77;;;;;;;23.05;85.08;94971.00;5072697;28;20453;-76
2023/08/16 00:50:21;;;;;;;13.77;12.30;;;;;;;23.14;85.20;94967.97;5072018;28;20457;-76
2023/08/16 00:52:48;;;;;;;14.27;12.73;;;;;;;23.26;83.91;94970.81;5074124;28;20492;-76
2023/08/16 00:55:16;;;;;;;15.57;13.73;;;;;;;23.26;83.14;94968.16;5040508;28;20450;-77
2023/08/16 00:57:43;;;;;;;13.83;12.53;;;;;;;23.17;83.27;94966.72;5075761;28;20475;-77
2023/08/16 01:00:13;;;;;;;13.43;12.10;;;;;;;23.10;83.40;94968.53;5076046;28;20447;-77
2023/08/16 01:02:40;;;;;;;16.50;13.27;;;;;;;23.04;84.24;94967.50;5075864;28;20475;-76
2023/08/16 01:05:07;;;;;;;13.13;11.90;;;;;;;23.03;84.85;94963.19;5076296;28;20505;-76
2023/08/16 01:07:34;;;;;;;16.03;12.70;;;;;;;23.08;83.83;94963.41;5040833;28;20447;-77
2023/08/16 01:10:01;;;;;;;12.17;11.17;;;;;;;23.06;84.04;94957.44;5040522;28;20948;-77
2023/08/16 01:12:35;;;;;;;12.47;11.37;;;;;;;23.09;84.28;94950.84;5075609;28;20507;-77
2023/08/16 01:15:08;;;;;;;15.50;12.90;;;;;;;23.07;83.33;94953.72;5075415;28;20491;-76
2023/08/16 01:17:37;;;;;;;13.10;11.20;;;;;;;23.06;83.70;94949.41;5075721;28;20447;-77
2023/08/16 01:20:08;;;;;;;14.10;12.20;;;;;;;23.11;83.47;94952.28;5076044;28;20454;-76
2023/08/16 01:22:43;;;;;;;16.47;11.33;;;;;;;23.18;82.50;94952.31;5075615;28;20462;-77
2023/08/16 01:25:26;;;;;;;12.40;11.10;;;;;;;23.17;82.02;94953.34;5075460;28;20441;-77
2023/08/16 01:28:06;;;;;;;13.60;12.33;;;;;;;23.19;81.57;94956.63;5075974;28;20489;-76
2023/08/16 01:30:33;;;;;;;16.23;11.37;;;;;;;23.24;81.30;94956.81;5075310;28;20438;-77
2023/08/16 01:33:07;;;;;;;12.80;11.50;;;;;;;23.30;81.55;94955.16;5075155;28;20881;-76
2023/08/16 01:35:35;;;;;;;13.70;12.30;;;;;;;23.37;81.02;94959.47;5074673;28;20442;-76
2023/08/16 01:38:02;;;;;;;12.70;11.40;;;;;;;23.49;79.68;94955.16;5075655;28;20453;-77
2023/08/16 01:40:31;;;;;;;14.27;12.87;;;;;;;23.45;78.77;94961.16;5075746;28;20471;-77
2023/08/16 01:43:01;;;;;;;16.60;13.53;;;;;;;23.35;79.20;94960.72;5040151;28;20471;-77
2023/08/16 01:45:28;;;;;;;13.93;12.53;;;;;;;23.25;79.88;94955.78;5074759;28;20454;-76
2023/08/16 01:47:57;;;;;;;21.70;14.20;;;;;;;23.18;80.21;94960.34;5075377;28;20445;-77
2023/08/16 01:50:25;;;;;;;15.97;14.37;;;;;;;23.07;80.17;94951.03;5075324;28;20452;-77
2023/08/16 01:52:52;;;;;;;13.27;12.17;;;;;;;23.03;81.22;94954.34;5075074;28;20501;-77
2023/08/16 01:55:19;;;;;;;14.10;12.60;;;;;;;22.98;81.34;94957.63;5076105;28;20488;-77
2023/08/16 01:57:46;;;;;;;12.53;11.27;;;;;;;22.98;81.65;94949.59;5075853;28;20450;-77
2023/08/16 02:00:18;;;;;;;15.40;12.37;;;;;;;23.07;81.60;94950.22;5075374;28;20829;-78
2023/08/16 02:02:45;;;;;;;11.43;10.43;;;;;;;23.09;80.83;94953.50;5075540;28;20474;-76
2023/08/16 02:05:11;;;;;;;11.27;10.27;;;;;;;23.11;80.02;94951.44;5074174;28;20452;-77
2023/08/16 02:07:38;;;;;;;13.70;12.40;;;;;;;23.08;80.31;94952.69;5074781;28;20451;-76
2023/08/16 02:10:06;;;;;;;12.60;11.40;;;;;;;23.04;80.64;94950.63;5074661;28;20453;-76
2023/08/16 02:12:32;;;;;;;12.60;11.30;;;;;;;22.93;80.28;94951.25;5074939;28;20450;-77
2023/08/16 02:15:01;;;;;;;13.47;12.27;;;;;;;22.82;81.16;94948.13;5074782;28;20976;-76
2023/08/16 02:17:29;;;;;;;12.60;11.30;;;;;;;22.78;82.13;94948.72;5075382;28;20524;-77
2023/08/16 02:19:56;;;;;;;13.97;12.73;;;;;;;22.74;82.15;94961.69;5075275;28;20446;-78
2023/08/16 02:22:24;;;;;;;13.73;11.87;;;;;;;22.71;82.14;94951.41;5075189;28;20465;-76
2023/08/16 02:24:51;;;;;;;12.60;11.20;;;;;;;22.78;82.39;94952.22;5075174;28;20449;-76
2023/08/16 02:27:18;;;;;;;13.47;12.17;;;;;;;22.84;81.18;94954.13;5075328;28;20447;-76
2023/08/16 02:29:45;;;;;;;13.90;12.70;;;;;;;22.95;81.17;94946.53;5074765;28;20442;-76
2023/08/16 02:32:12;;;;;;;13.00;11.20;;;;;;;23.04;80.65;94947.97;5040482;28;20438;-76
2023/08/16 02:34:40;;;;;;;13.17;11.77;;;;;;;23.16;80.50;94939.13;5074879;28;20485;-77
2023/08/16 02:37:07;;;;;;;13.00;11.70;;;;;;;23.27;79.11;94940.34;5074653;28;20910;-76
2023/08/16 02:39:33;;;;;;;13.00;11.80;;;;;;;23.36;78.61;94933.72;5055983;28;20450;-76
2023/08/16 02:42:00;;;;;;;13.57;12.20;;;;;;;23.36;77.97;94931.06;5074134;28;20450;-77
2023/08/16 02:44:27;;;;;;;13.70;11.33;;;;;;;23.21;78.39;94935.81;5075318;28;20464;-76
2023/08/16 02:46:54;;;;;;;11.80;10.80;;;;;;;23.25;78.82;94934.38;5074992;28;20449;-76
2023/08/16 02:49:21;;;;;;;15.57;11.00;;;;;;;23.24;78.64;94943.44;5076677;28;20444;-76
2023/08/16 02:51:49;;;;;;;14.33;11.17;;;;;;;23.24;78.18;94940.75;5079970;28;20441;-76
2023/08/16 02:54:15;;;;;;;12.47;11.37;;;;;;;23.18;78.65;94938.91;5078087;28;20485;-77
2023/08/16 02:56:42;;;;;;;13.73;11.30;;;;;;;23.00;79.65;94944.03;5081167;28;20449;-77
2023/08/16 02:59:13;;;;;;;11.60;10.47;;;;;;;22.98;79.66;94938.06;5044995;28;20504;-77
2023/08/16 03:01:42;;;;;;;13.27;11.80;;;;;;;22.90;80.31;94939.09;5077994;28;20446;-77
2023/08/16 03:04:09;;;;;;;12.50;11.33;;;;;;;22.85;80.58;94938.91;5045631;28;20940;-77
2023/08/16 03:06:37;;;;;;;13.40;12.20;;;;;;;22.80;80.80;94938.63;5082584;28;20440;-77
2023/08/16 03:09:05;;;;;;;12.60;11.40;;;;;;;22.85;81.07;94936.22;5083529;28;20939;-77
2023/08/16 03:11:32;;;;;;;12.63;11.52;;;;;;;23.05;80.40;94933.53;5077793;28;20431;-76
2023/08/16 03:13:59;;;;;;;13.00;11.70;;;;;;;23.06;79.34;94933.34;5083347;28;20234;-75
2023/08/16 03:16:25;;;;;;;13.13;11.70;;;;;;;22.96;79.58;94932.09;5083608;28;20933;-77
2023/08/16 03:18:52;;;;;;;13.87;10.57;;;;;;;22.88;80.60;94932.31;5085049;28;20446;-76
2023/08/16 03:21:19;;;;;;;12.50;11.30;;;;;;;22.80;81.31;94933.28;5094241;28;20457;-76
2023/08/16 03:23:46;;;;;;;12.87;11.67;;;;;;;22.75;81.50;94936.56;5060859;28;20456;-74
2023/08/16 03:26:14;;;;;;;14.13;12.77;;;;;;;22.71;81.56;94934.50;5087283;28;20434;-77
2023/08/16 03:28:40;;;;;;;16.47;10.93;;;;;;;22.62;82.09;94933.06;5085316;28;20458;-77
2023/08/16 03:31:08;;;;;;;12.47;11.27;;;;;;;22.71;81.46;94946.03;5085449;28;20815;-76
2023/08/16 03:33:35;;;;;;;13.47;12.07;;;;;;;22.66;80.85;94953.03;5090670;28;20435;-77
2023/08/16 03:36:02;;;;;;;14.80;12.07;;;;;;;22.45;81.05;94949.47;5056017;28;20482;-77
2023/08/16 03:38:29;;;;;;;13.33;12.03;;;;;;;22.28;82.49;94952.72;5086716;28;20444;-76
2023/08/16 03:40:56;;;;;;;13.70;12.50;;;;;;;22.23;83.97;94954.13;5085546;28;20438;-76
2023/08/16 03:43:24;;;;;;;13.27;11.90;;;;;;;22.12;84.89;94957.38;5062456;28;20456;-75
2023/08/16 03:45:51;;;;;;;15.18;13.23;;;;;;;22.27;84.60;94956.44;5073881;28;20434;-76
2023/08/16 03:48:18;;;;;;;14.27;12.93;;;;;;;22.33;83.16;94961.78;5073899;28;20216;-75
2023/08/16 03:50:45;;;;;;;13.03;11.83;;;;;;;22.27;84.60;94948.41;5073430;28;20813;-76
2023/08/16 03:53:12;;;;;;;13.63;11.33;;;;;;;22.40;84.70;94961.81;5055133;28;20451;-76
2023/08/16 03:55:39;;;;;;;16.80;11.77;;;;;;;22.59;84.38;94963.72;5073743;28;20894;-76
2023/08/16 03:58:06;;;;;;;15.17;12.90;;;;;;;22.76;83.45;94964.16;5073948;28;20450;-75
2023/08/16 04:00:34;;;;;;;14.20;12.37;;;;;;;22.98;82.50;94970.19;5072850;28;20447;-74
2023/08/16 04:03:00;;;;;;;14.50;12.37;;;;;;;23.10;80.13;94969.38;5073139;28;20439;-75
2023/08/16 04:05:27;;;;;;;16.73;12.23;;;;;;;22.91;79.54;94978.22;5073190;28;20925;-75
2023/08/16 04:07:54;;;;;;;14.20;12.80;;;;;;;22.66;82.22;94969.09;5049325;28;20449;-76
2023/08/16 04:10:21;;;;;;;14.07;12.40;;;;;;;22.69;83.31;94969.50;5091420;28;20438;-75
2023/08/16 04:12:48;;;;;;;24.10;13.20;;;;;;;22.86;82.64;94976.16;5074222;28;20459;-76
2023/08/16 04:15:15;;;;;;;14.40;13.00;;;;;;;23.01;81.85;94973.28;5073520;28;20489;-76
2023/08/16 04:17:43;;;;;;;26.43;16.00;;;;;;;23.21;82.93;94978.66;5038504;28;20463;-75
2023/08/16 04:20:11;;;;;;;13.13;11.80;;;;;;;23.55;81.84;94974.94;5073630;28;20437;-76
2023/08/16 04:22:38;;;;;;;14.33;12.93;;;;;;;23.69;79.25;94975.75;5072408;28;20448;-74
2023/08/16 04:25:06;;;;;;;17.63;12.50;;;;;;;23.63;78.58;94971.22;5072227;28;20452;-73
2023/08/16 04:27:33;;;;;;;16.60;13.90;;;;;;;23.58;79.08;94963.81;5054768;28;20811;-73
2023/08/16 04:30:00;;;;;;;14.13;12.40;;;;;;;23.60;79.46;94964.44;5040567;28;20459;-74
2023/08/16 04:32:27;;;;;;;13.47;12.27;;;;;;;23.69;79.06;94970.41;5076043;28;20458;-74
2023/08/16 04:34:55;;;;;;;14.93;13.33;;;;;;;23.74;79.09;94967.94;5075292;28;20486;-75
2023/08/16 04:37:22;;;;;;;16.60;14.17;;;;;;;23.79;79.10;94963.59;5056502;28;20427;-74
2023/08/16 04:39:49;;;;;;;16.77;13.33;;;;;;;23.77;78.19;94971.00;5075100;28;20839;-74
2023/08/16 04:42:16;;;;;;;14.33;12.93;;;;;;;23.67;78.01;94967.09;5075571;28;20443;-73
2023/08/16 04:44:43;;;;;;;15.60;13.40;;;;;;;23.69;81.70;94970.41;5075274;28;20447;-75
2023/08/16 04:47:10;;;;;;;26.77;24.37;;;;;;;23.94;84.49;94968.69;5075483;28;20435;-73
2023/08/16 04:49:37;;;;;;;16.23;14.10;;;;;;;24.42;80.22;94965.66;5075452;28;20448;-76
2023/08/16 04:52:08;;;;;;;15.03;13.53;;;;;;;24.65;77.49;94971.34;5074310;28;20485;-75
2023/08/16 04:54:34;;;;;;;12.50;11.23;;;;;;;24.84;75.16;94968.72;5075435;28;20490;-77
2023/08/16 04:57:02;;;;;;;12.60;11.40;;;;;;;25.10;73.50;94959.72;5080717;28;20444;-73
2023/08/16 04:59:28;;;;;;;12.00;10.90;;;;;;;25.48;70.45;94965.00;5088582;28;20441;-75
2023/08/16 05:01:55;;;;;;;13.33;12.00;;;;;;;25.65;70.89;94968.75;5075276;28;20836;-75
2023/08/16 05:04:22;;;;;;;14.37;12.87;;;;;;;25.80;70.29;94968.44;5075738;28;20436;-75
2023/08/16 05:06:49;;;;;;;14.67;11.90;;;;;;;25.79;69.94;94970.31;5075768;28;20441;-76
2023/08/16 05:09:17;;;;;;;14.67;12.40;;;;;;;25.68;70.04;94973.72;5075546;28;20812;-76
2023/08/16 05:11:44;;;;;;;13.20;11.90;;;;;;;25.55;71.27;94973.81;5075634;28;20444;-77
2023/08/16 05:14:10;;;;;;;14.30;12.40;;;;;;;25.67;72.98;94977.44;5057561;28;20445;-76
2023/08/16 05:16:37;;;;;;;12.03;11.00;;;;;;;25.58;72.73;94974.19;5076784;28;20441;-77
2023/08/16 05:19:07;;;;;;;13.63;12.10;;;;;;;25.57;71.10;94963.66;5075892;28;20436;-76
2023/08/16 05:21:33;;;;;;;19.57;12.57;;;;;;;25.47;70.44;94971.41;5075948;28;20891;-75
2023/08/16 05:24:00;;;;;;;13.47;12.20;;;;;;;25.38;74.32;94972.72;5076523;28;20437;-76
2023/08/16 05:26:29;;;;;;;13.37;11.90;;;;;;;25.32;73.44;94967.19;5075672;28;20445;-75
2023/08/16 05:28:56;;;;;;;16.23;12.03;;;;;;;25.40;73.58;94960.69;5076028;28;20447;-76
2023/08/16 05:31:23;;;;;;;13.77;12.30;;;;;;;25.38;70.98;94970.84;5076000;28;20471;-77
2023/08/16 05:33:49;;;;;;;14.03;12.73;;;;;;;25.29;71.80;94964.09;5056443;28;20451;-76
2023/08/16 05:36:18;;;;;;;19.17;13.57;;;;;;;25.25;72.93;94969.09;5074447;28;20491;-76
2023/08/16 05:38:45;;;;;;;13.50;12.20;;;;;;;25.19;73.25;94967.31;5070761;28;20927;-77
2023/08/16 05:41:12;;;;;;;14.47;12.43;;;;;;;25.08;72.00;94967.97;5073554;28;20468;-74
2023/08/16 05:43:40;;;;;;;16.20;13.83;;;;;;;24.96;71.98;94969.69;5079247;28;20449;-75
2023/08/16 05:46:06;;;;;;;16.73;12.47;;;;;;;24.83;74.14;94962.53;5074728;28;20441;-74
2023/08/16 05:48:34;;;;;;;16.70;14.17;;;;;;;24.82;72.98;94973.50;5074593;28;20437;-75
2023/08/16 05:51:00;;;;;;;14.97;13.43;;;;;;;24.72;72.22;94968.59;5074617;28;20449;-75
2023/08/16 05:53:27;;;;;;;13.50;12.40;;;;;;;24.68;76.32;94964.72;5055912;28;20444;-78
2023/08/16 05:55:54;;;;;;;20.30;15.17;;;;;;;24.69;73.18;94979.78;5075204;28;20484;-76
2023/08/16 05:58:21;;;;;;;17.63;15.83;;;;;;;24.60;71.76;94981.91;5074510;28;20465;-76
2023/08/16 06:00:52;;;;;;;16.40;14.33;;;;;;;24.50;71.08;94984.19;5074891;28;20448;-75
2023/08/16 06:03:19;;;;;;;16.50;14.77;;;;;;;24.48;72.88;94975.53;5056550;28;20475;-76
2023/08/16 06:05:46;;;;;;;20.40;16.97;;;;;;;24.36;72.68;94971.88;5074431;28;20445;-75
2023/08/16 06:08:13;;;;;;;16.40;14.03;;;;;;;24.28;72.26;94980.16;5074662;28;20436;-74
2023/08/16 06:10:40;;;;;;;18.83;13.70;;;;;;;24.34;75.03;94984.69;5074276;28;20439;-76
2023/08/16 06:13:07;;;;;;;20.83;14.93;;;;;;;24.64;74.16;94990.34;5074351;28;20920;-75
2023/08/16 06:15:33;;;;;;;15.13;13.63;;;;;;;24.77;73.71;94979.50;5073931;28;20489;-73
2023/08/16 06:18:02;;;;;;;14.63;13.17;;;;;;;24.96;84.65;94985.81;5074309;28;20441;-78
2023/08/16 06:20:28;;;;;;;24.73;13.00;;;;;;;25.23;72.91;94981.94;5074216;28;20469;-76
2023/08/16 06:22:55;;;;;;;21.60;13.87;;;;;;;25.58;71.71;94979.56;5073918;28;20441;-77
2023/08/16 06:25:22;;;;;;;16.47;13.27;;;;;;;25.85;68.07;94976.66;5073985;28;20448;-74
2023/08/16 06:27:49;;;;;;;15.67;13.67;;;;;;;26.01;71.16;94973.38;5074379;28;20441;-79
2023/08/16 06:30:16;;;;;;;17.10;13.70;;;;;;;26.17;75.26;94974.66;5074689;28;20943;-80
2023/08/16 06:32:42;;;;;;;15.27;12.30;;;;;;;26.19;67.02;94972.56;5074599;28;20452;-78
2023/08/16 06:35:11;;;;;;;14.47;12.93;;;;;;;26.30;80.08;94969.09;5053988;28;20477;-79
2023/08/16 06:37:39;;;;;;;16.20;13.63;;;;;;;26.16;70.66;94965.75;5053457;28;20491;-80
2023/08/16 06:40:07;;;;;;;13.23;11.83;;;;;;;26.07;68.69;94958.22;5074761;28;20831;-79
2023/08/16 06:42:34;;;;;;;15.20;13.63;;;;;;;26.02;73.59;94955.38;5073743;28;20445;-80
2023/08/16 06:45:01;;;;;;;14.47;12.37;;;;;;;25.98;67.24;94957.69;5055659;28;20455;-81
2023/08/16 06:47:28;;;;;;;15.10;13.50;;;;;;;25.93;66.38;94961.06;5071035;28;20440;-79
2023/08/16 06:49:55;;;;;;;12.70;11.40;;;;;;;25.88;66.52;94960.06;5055283;28;20453;-77
2023/08/16 06:52:23;;;;;;;14.40;12.93;;;;;;;25.82;66.19;94958.28;5074224;28;20437;-79
2023/08/16 06:54:50;;;;;;;16.90;12.33;;;;;;;25.96;70.44;94956.25;5055568;28;20441;-79
2023/08/16 06:57:17;;;;;;;14.87;12.70;;;;;;;26.38;65.07;94957.28;5073966;28;20445;-79
2023/08/16 06:59:44;;;;;;;14.43;13.03;;;;;;;26.61;63.83;94954.69;5039189;28;20443;-80
2023/08/16 07:02:13;;;;;;;13.43;11.10;;;;;;;26.79;64.11;94957.31;5074145;28;20445;-80
2023/08/16 07:04:40;;;;;;;17.30;11.97;;;;;;;26.80;62.46;94947.38;5073739;28;20445;-82
2023/08/16 07:07:07;;;;;;;17.13;13.30;;;;;;;26.85;63.06;94953.72;5071783;28;20445;-77
2023/08/16 07:09:35;;;;;;;15.00;13.40;;;;;;;26.79;62.52;94951.94;5073186;28;20503;-77
2023/08/16 07:12:05;;;;;;;19.13;13.03;;;;;;;26.55;62.46;94945.63;5072434;28;20443;-79
2023/08/16 07:14:31;;;;;;;14.33;12.87;;;;;;;26.46;63.57;94947.00;5072918;28;20454;-76
2023/08/16 07:16:58;;;;;;;14.03;12.70;;;;;;;26.31;63.82;94951.94;5072805;28;20983;-77
2023/08/16 07:19:25;;;;;;;13.80;12.57;;;;;;;26.17;64.44;94953.97;5072682;28;20515;-76
2023/08/16 07:21:52;;;;;;;23.23;13.23;;;;;;;26.05;64.86;94954.94;5072697;28;20824;-77
2023/08/16 07:24:19;;;;;;;20.60;12.33;;;;;;;25.86;65.16;94951.41;5072905;28;20443;-76
2023/08/16 07:26:47;;;;;;;19.97;12.50;;;;;;;25.90;67.12;94949.91;5072754;28;20452;-76
2023/08/16 07:29:14;;;;;;;16.13;12.83;;;;;;;25.83;67.08;94947.31;5072382;28;20815;-77
2023/08/16 07:31:40;;;;;;;19.30;13.33;;;;;;;25.97;67.33;94941.78;5072691;28;20440;-76
2023/08/16 07:34:07;;;;;;;19.47;12.33;;;;;;;25.93;66.67;94944.91;5072397;28;20441;-77
2023/08/16 07:36:34;;;;;;;14.13;12.83;;;;;;;25.97;66.81;94945.28;5072364;28;20487;-77
2023/08/16 07:39:01;;;;;;;13.37;12.10;;;;;;;25.70;68.13;94939.38;5072714;28;20443;-77
2023/08/16 07:41:27;;;;;;;15.63;12.80;;;;;;;25.79;68.43;94938.06;5072264;28;20819;-77
2023/08/16 07:43:58;;;;;;;15.80;12.87;;;;;;;26.02;67.74;94942.78;5072880;28;20448;-76
2023/08/16 07:46:25;;;;;;;13.47;12.17;;;;;;;26.52;65.66;94938.00;5072096;28;20448;-76
2023/08/16 07:48:52;;;;;;;12.07;11.07;;;;;;;27.11;65.47;94941.75;5072223;28;20448;-76
2023/08/16 07:51:19;;;;;;;12.87;11.57;;;;;;;27.66;62.41;94935.28;5072037;28;20445;-77
2023/08/16 07:53:45;;;;;;;13.00;10.90;;;;;;;28.14;58.60;94932.31;5072233;28;20452;-78
2023/08/16 07:56:12;;;;;;;10.80;9.73;;;;;;;28.44;55.16;94931.31;5072754;28;20713;-76
2023/08/16 07:58:39;;;;;;;9.83;9.03;;;;;;;28.31;55.61;94935.91;5072371;28;20437;-78
2023/08/16 08:01:07;;;;;;;11.10;9.53;;;;;;;28.53;55.48;94929.84;5072031;28;20444;-78
2023/08/16 08:03:34;;;;;;;10.67;9.40;;;;;;;28.56;56.27;94930.19;5075085;28;20459;-76
2023/08/16 08:06:02;;;;;;;12.00;10.43;;;;;;;28.59;52.87;94935.09;5076519;28;20448;-77
2023/08/16 08:08:28;;;;;;;11.90;10.83;;;;;;;28.84;54.20;94932.06;5040934;28;20447;-75
2023/08/16 08:10:55;;;;;;;10.23;9.30;;;;;;;28.77;53.69;94934.09;5040901;28;20436;-77
2023/08/16 08:13:22;;;;;;;11.30;10.07;;;;;;;28.86;53.67;94931.84;5076329;28;20456;-76
2023/08/16 08:15:49;;;;;;;10.10;9.20;;;;;;;29.17;54.57;94939.44;5076015;28;20487;-77
2023/08/16 08:18:17;;;;;;;12.43;9.87;;;;;;;29.39;53.16;94934.13;5075978;28;20441;-77
2023/08/16 08:20:44;;;;;;;11.50;9.90;;;;;;;29.67;52.68;94938.66;5076113;28;20460;-77
2023/08/16 08:23:11;;;;;;;11.33;10.13;;;;;;;29.78;51.98;94931.50;5075766;28;20455;-77
2023/08/16 08:25:41;;;;;;;14.20;10.30;;;;;;;29.66;52.34;94945.13;5040686;28;20448;-77
2023/08/16 08:28:08;;;;;;;13.93;9.40;;;;;;;29.62;51.56;94937.75;5075812;28;20440;-78
2023/08/16 08:30:35;;;;;;;11.57;10.37;;;;;;;29.76;52.13;94933.63;5075945;28;20954;-77
2023/08/16 08:33:02;;;;;;;10.53;9.53;;;;;;;29.96;51.66;94927.69;5075849;28;20448;-77
2023/08/16 08:35:30;;;;;;;11.50;10.00;;;;;;;30.04;51.35;94933.53;5075442;28;20444;-75
2023/08/16 08:37:57;;;;;;;16.93;11.33;;;;;;;29.91;51.61;94926.56;5075705;28;20441;-77
2023/08/16 08:40:24;;;;;;;12.07;10.87;;;;;;;30.03;50.90;94929.19;5075500;28;20441;-75
2023/08/16 08:42:52;;;;;;;14.63;9.80;;;;;;;30.19;51.20;94925.63;5075362;28;20451;-77
2023/08/16 08:45:19;;;;;;;10.70;9.60;;;;;;;30.38;50.61;94925.31;5075778;28;20449;-76
2023/08/16 08:47:46;;;;;;;16.90;10.27;;;;;;;30.61;50.03;94925.06;5075532;28;20449;-77
2023/08/16 08:50:12;;;;;;;15.07;10.33;;;;;;;30.63;49.19;94928.31;5075483;28;20475;-76
2023/08/16 08:52:41;;;;;;;13.07;10.10;;;;;;;30.23;50.65;94927.81;5040070;28;20439;-77
2023/08/16 08:55:09;;;;;;;11.67;9.77;;;;;;;29.92;51.40;94927.38;5056357;28;20790;-76
2023/08/16 08:57:37;;;;;;;11.70;10.60;;;;;;;29.64;51.17;94922.09;5075353;28;20991;-76
2023/08/16 09:00:08;;;;;;;11.47;10.30;;;;;;;29.41;52.73;94925.78;5075356;28;20441;-76
2023/08/16 09:02:37;;;;;;;12.03;10.87;;;;;;;29.27;53.62;94918.00;5075137;28;20436;-76
2023/08/16 09:05:05;;;;;;;11.10;10.03;;;;;;;29.05;53.67;94921.66;5075937;28;20942;-77
2023/08/16 09:07:33;;;;;;;11.63;10.43;;;;;;;28.80;53.23;94925.53;5075252;28;20441;-76
2023/08/16 09:10:01;;;;;;;13.73;10.53;;;;;;;28.62;53.66;94926.56;5074930;28;20860;-77
2023/08/16 09:12:28;;;;;;;13.60;10.00;;;;;;;28.62;55.50;94925.72;5075381;28;20448;-77
2023/08/16 09:14:55;;;;;;;14.37;10.93;;;;;;;28.44;55.22;94926.72;5074876;28;20444;-76
2023/08/16 09:17:22;;;;;;;11.50;10.50;;;;;;;28.33;56.06;94930.28;5074814;28;20485;-76
2023/08/16 09:19:49;;;;;;;11.70;10.50;;;;;;;28.43;56.35;94924.28;5074803;28;20436;-76
2023/08/16 09:22:16;;;;;;;10.60;9.60;;;;;;;28.46;55.64;94924.59;5074691;28;20468;-76
2023/08/16 09:24:43;;;;;;;12.63;9.60;;;;;;;28.50;55.62;94930.34;5074588;28;20990;-76
2023/08/16 09:27:12;;;;;;;12.73;9.53;;;;;;;28.57;55.08;94928.31;5074741;28;20508;-77
2023/08/16 09:29:40;;;;;;;11.33;10.17;;;;;;;28.63;55.12;94920.09;5074785;28;20455;-77
2023/08/16 09:32:07;;;;;;;10.97;9.87;;;;;;;28.47;53.17;94911.94;5075066;28;20482;-76
2023/08/16 09:34:35;;;;;;;11.27;10.07;;;;;;;28.49;54.43;94912.50;5074756;28;20501;-77
2023/08/16 09:37:02;;;;;;;12.37;11.27;;;;;;;28.56;55.15;94911.28;5074398;28;20487;-77
2023/08/16 09:39:29;;;;;;;10.60;9.60;;;;;;;28.71;54.83;94909.97;5074950;28;20475;-75
2023/08/16 09:41:57;;;;;;;12.57;9.87;;;;;;;28.96;54.10;94908.56;5074592;28;20523;-77
2023/08/16 09:44:31;;;;;;;17.63;10.67;;;;;;;29.30;53.78;94911.28;5074347;28;20478;-75
2023/08/16 09:46:59;;;;;;;14.40;10.57;;;;;;;29.56;53.70;94912.53;5074447;28;20444;-77
2023/08/16 09:49:26;;;;;;;14.23;10.43;;;;;;;29.55;52.34;94917.13;5074285;28;20445;-81
2023/08/16 09:51:53;;;;;;;11.57;9.80;;;;;;;29.43;52.90;94921.75;5075153;28;20457;-76
2023/08/16 09:54:20;;;;;;;10.13;9.17;;;;;;;29.63;51.71;94917.75;5074583;28;20451;-77
2023/08/16 09:56:47;;;;;;;15.77;9.80;;;;;;;29.91;51.76;94920.34;5073905;28;20829;-77
2023/08/16 09:59:15;;;;;;;16.53;10.37;;;;;;;29.86;51.73;94909.44;5074314;28;20777;-77
2023/08/16 10:01:45;;;;;;;12.20;11.00;;;;;;;29.91;51.84;94907.63;5073965;28;20445;-77
2023/08/16 10:04:12;;;;;;;10.93;10.03;;;;;;;29.74;51.06;94909.53;5074559;28;20562;-76
2023/08/16 10:06:39;;;;;;;11.10;9.93;;;;;;;29.73;52.24;94904.38;5074368;28;20524;-76
2023/08/16 10:09:08;;;;;;;10.53;9.30;;;;;;;29.70;51.64;94910.28;5074377;28;20453;-76
2023/08/16 10:11:37;;;;;;;10.83;9.83;;;;;;;29.22;53.40;94906.28;5074054;28;20443;-76
2023/08/16 10:14:06;;;;;;;13.70;10.60;;;;;;;28.95;53.96;94906.94;5074558;28;20444;-79
2023/08/16 10:16:35;;;;;;;10.27;9.20;;;;;;;28.66;54.03;94913.38;5074032;28;20476;-76
2023/08/16 10:19:04;;;;;;;14.37;10.30;;;;;;;28.31;55.29;94906.22;5074098;28;20924;-76
2023/08/16 10:21:34;;;;;;;10.67;9.57;;;;;;;28.35;56.92;94909.28;5073575;28;21038;-75
2023/08/16 10:24:02;;;;;;;10.23;9.27;;;;;;;28.54;54.63;94916.13;5073861;28;20445;-75
2023/08/16 10:26:30;;;;;;;11.67;9.47;;;;;;;28.65;53.81;94914.44;5072901;28;20437;-77
2023/08/16 10:29:02;;;;;;;11.97;9.37;;;;;;;28.62;53.44;94907.66;5073542;28;20449;-76
2023/08/16 10:31:34;;;;;;;11.10;10.10;;;;;;;28.50;52.99;94903.34;5073909;28;20437;-76
2023/08/16 10:34:02;;;;;;;9.87;8.97;;;;;;;28.67;54.60;94906.94;5073657;28;20444;-76
2023/08/16 10:36:31;;;;;;;13.53;9.20;;;;;;;28.83;55.22;94908.00;5073312;28;20491;-77
2023/08/16 10:38:59;;;;;;;9.97;8.53;;;;;;;28.66;51.40;94910.69;5073799;28;20441;-76
2023/08/16 10:41:26;;;;;;;11.57;8.87;;;;;;;28.80;51.57;94893.09;5073204;28;20445;-74
2023/08/16 10:43:54;;;;;;;9.43;8.73;;;;;;;28.99;51.07;94902.66;5073250;28;20444;-77
2023/08/16 10:46:31;;;;;;;10.00;9.10;;;;;;;29.20;52.25;94886.78;5073602;28;20870;-77
2023/08/16 10:48:59;;;;;;;12.50;8.73;;;;;;;29.28;50.52;94894.50;5073389;28;20445;-77
2023/08/16 10:51:26;;;;;;;13.27;9.60;;;;;;;29.23;51.86;94891.72;5073068;28;20441;-76
2023/08/16 10:53:57;;;;;;;13.10;9.37;;;;;;;28.81;53.30;94886.63;5073278;28;20452;-78
2023/08/16 10:56:24;;;;;;;13.40;10.40;;;;;;;29.06;53.96;94882.78;5072812;28;20480;-76
2023/08/16 10:58:52;;;;;;;12.20;9.37;;;;;;;29.36;52.78;94885.13;5072883;28;20801;-76
2023/08/16 11:01:32;;;;;;;12.30;10.00;;;;;;;29.35;51.50;94881.63;5073442;28;20467;-76
2023/08/16 11:04:00;;;;;;;11.27;9.73;;;;;;;29.15;52.01;94882.09;5073382;28;20452;-76
2023/08/16 11:06:27;;;;;;;10.60;9.70;;;;;;;29.16;51.76;94881.03;5072557;28;20449;-77
2023/08/16 11:08:55;;;;;;;13.80;10.60;;;;;;;29.17;52.63;94876.44;5073152;28;20767;-75
2023/08/16 11:11:23;;;;;;;11.23;10.23;;;;;;;29.20;51.17;94875.97;5073410;28;20437;-76
2023/08/16 11:13:50;;;;;;;14.77;12.10;;;;;;;29.05;52.26;94871.13;5037545;28;20449;-75
2023/08/16 11:16:16;;;;;;;19.70;13.10;;;;;;;29.24;52.59;94871.72;5072863;28;20445;-77
2023/08/16 11:18:44;;;;;;;11.50;10.50;;;;;;;29.40;52.85;94868.16;5072614;28;20437;-77
2023/08/16 11:21:14;;;;;;;13.03;10.80;;;;;;;29.26;52.54;94875.00;5037053;28;20476;-76